Time;durP1;ratioP1;P1;durP2;ratioP2;P2;SDS_P1;SDS_P2;PMS_P1;PMS_P2;Temp;Humidity;BMP_temperature;BMP_pressure;BME280_temperature;BME280_humidity;BME280_pressure;Samples;Min_cycle;Max_cycle;Signal;HPM_P1;HPM_P2
2022/05/24 00:03:19;;;;;;;20.45;16.50;;;14.10;99.90;;;;;;7365491;32;20107;-61
2022/05/24 00:07:21;;;;;;;19.27;14.77;;;14.10;99.90;;;;;;7368440;32;20511;-60
2022/05/24 00:11:22;;;;;;;21.25;16.58;;;14.10;99.90;;;;;;7349050;32;20096;-61
2022/05/24 00:15:30;;;;;;;17.75;15.25;;;14.10;99.90;;;;;;7364193;32;20382;-61
2022/05/24 00:19:33;;;;;;;21.65;16.33;;;14.00;99.90;;;;;;7362196;32;20843;-61
2022/05/24 00:23:35;;;;;;;20.50;16.15;;;14.10;99.90;;;;;;7349711;32;20224;-61
2022/05/24 00:27:36;;;;;;;21.58;17.08;;;14.00;99.90;;;;;;7352275;32;20122;-61
2022/05/24 00:31:38;;;;;;;23.87;18.20;;;14.10;99.90;;;;;;7369831;32;20546;-60
2022/05/24 00:35:41;;;;;;;26.15;19.25;;;14.10;99.90;;;;;;7345225;32;20123;-61
2022/05/24 00:39:42;;;;;;;27.60;20.02;;;14.10;99.90;;;;;;7363180;32;20099;-61
2022/05/24 00:43:53;;;;;;;30.15;23.08;;;14.10;99.90;;;;;;7339125;32;20363;-61
2022/05/24 00:48:06;;;;;;;28.45;22.35;;;14.00;99.90;;;;;;7369469;32;20276;-61
2022/05/24 00:52:22;;;;;;;27.10;22.37;;;14.10;99.90;;;;;;7360591;32;20137;-62
2022/05/24 00:56:41;;;;;;;30.48;22.15;;;14.00;99.90;;;;;;7359652;32;20555;-61
2022/05/24 01:00:44;;;;;;;29.20;22.50;;;14.10;99.90;;;;;;7364046;32;20125;-61
2022/05/24 01:04:46;;;;;;;26.33;22.35;;;14.00;99.90;;;;;;7364170;32;20111;-62
2022/05/24 01:08:48;;;;;;;27.10;22.23;;;14.00;99.90;;;;;;7363600;32;20103;-62
2022/05/24 01:12:52;;;;;;;26.48;22.35;;;14.00;99.90;;;;;;7364172;32;22284;-63
2022/05/24 01:16:55;;;;;;;31.50;22.62;;;14.00;99.90;;;;;;7345477;32;20103;-61
2022/05/24 01:21:03;;;;;;;28.70;21.87;;;14.00;99.90;;;;;;7357347;32;20209;-62
2022/05/24 01:25:17;;;;;;;27.80;23.12;;;14.00;99.90;;;;;;7349924;32;20198;-62
2022/05/24 01:29:20;;;;;;;29.45;23.45;;;14.00;99.90;;;;;;7362751;32;20100;-61
2022/05/24 01:37:42;;;;;;;33.40;23.52;;;14.00;99.90;;;;;;7350912;32;20466;-61
2022/05/24 01:41:51;;;;;;;33.28;22.83;;;14.10;99.90;;;;;;7329150;32;20170;-61
2022/05/24 01:45:57;;;;;;;30.88;21.25;;;14.10;99.90;;;;;;7354545;32;20191;-62
2022/05/24 01:50:03;;;;;;;29.25;19.85;;;14.10;99.90;;;;;;7359305;32;20642;-61
2022/05/24 01:54:07;;;;;;;26.62;20.33;;;14.10;99.90;;;;;;7346846;32;20257;-61
2022/05/24 01:58:12;;;;;;;27.55;19.75;;;14.10;99.90;;;;;;7353267;32;20111;-61
2022/05/24 02:02:13;;;;;;;27.10;19.70;;;14.10;99.90;;;;;;7342773;32;20125;-61
2022/05/24 02:06:28;;;;;;;23.77;18.90;;;14.10;99.90;;;;;;7367156;32;20686;-63
2022/05/24 02:10:53;;;;;;;27.23;19.40;;;14.10;99.90;;;;;;7344108;32;20653;-61
2022/05/24 02:15:17;;;;;;;20.98;17.52;;;14.10;99.90;;;;;;7348720;32;20099;-60
2022/05/24 02:19:20;;;;;;;23.12;18.10;;;14.00;99.90;;;;;;7366762;32;20117;-63
2022/05/24 02:23:22;;;;;;;27.85;18.33;;;14.00;99.90;;;;;;7368453;32;20104;-62
2022/05/24 02:27:26;;;;;;;29.27;18.73;;;14.00;99.90;;;;;;7357046;32;20194;-63
2022/05/24 02:31:28;;;;;;;22.73;18.30;;;14.00;99.90;;;;;;7370861;32;20106;-61
2022/05/24 02:35:30;;;;;;;20.83;16.23;;;14.00;99.90;;;;;;7356714;32;20463;-61
2022/05/24 02:41:28;;;;;;;22.23;16.15;;;14.00;99.90;;;;;;7364005;32;20099;-61
2022/05/24 02:43:53;;;;;;;21.77;16.77;;;14.00;99.90;;;;;;7344630;32;20604;-61
2022/05/24 02:47:55;;;;;;;18.33;13.62;;;13.90;99.90;;;;;;7375793;32;20509;-61
2022/05/24 02:51:56;;;;;;;12.70;10.13;;;13.90;99.90;;;;;;7366584;32;20592;-61
2022/05/24 02:56:05;;;;;;;10.10;7.03;;;13.80;99.90;;;;;;7364753;32;20099;-61
2022/05/24 03:00:18;;;;;;;12.00;6.53;;;13.70;99.90;;;;;;7365502;32;20359;-61
2022/05/24 03:04:19;;;;;;;13.90;7.22;;;13.60;99.90;;;;;;7362622;32;20107;-61
2022/05/24 03:17:04;;;;;;;13.90;8.40;;;13.40;99.90;;;;;;7369807;32;20173;-61
2022/05/24 03:21:06;;;;;;;11.15;7.05;;;13.30;99.90;;;;;;7347979;32;20197;-61
2022/05/24 03:25:08;;;;;;;12.57;7.62;;;13.20;99.90;;;;;;7364416;32;20115;-61
2022/05/24 03:29:10;;;;;;;13.55;7.40;;;13.10;99.90;;;;;;7366222;32;20252;-60
2022/05/24 03:33:12;;;;;;;13.00;7.30;;;13.10;99.90;;;;;;7368759;32;20122;-60
2022/05/24 03:37:14;;;;;;;12.20;7.72;;;12.90;99.90;;;;;;7371175;32;20125;-61
2022/05/24 03:41:15;;;;;;;15.60;7.30;;;12.80;99.90;;;;;;7359382;32;20351;-60
2022/05/24 03:45:18;;;;;;;17.23;7.70;;;12.80;99.90;;;;;;7363276;32;20220;-60
2022/05/24 03:49:21;;;;;;;17.52;7.60;;;12.70;99.90;;;;;;7360208;32;20100;-60
2022/05/24 03:53:24;;;;;;;11.32;6.50;;;12.70;99.90;;;;;;7369046;32;20134;-61
2022/05/24 04:01:46;;;;;;;10.90;5.93;;;12.80;99.90;;;;;;7352357;32;20201;-61
2022/05/24 04:05:48;;;;;;;16.10;6.70;;;12.70;99.90;;;;;;7372965;32;20122;-61
2022/05/24 04:09:50;;;;;;;8.73;5.68;;;12.70;99.90;;;;;;7367965;32;20129;-61
2022/05/24 04:13:51;;;;;;;11.52;5.35;;;12.70;99.90;;;;;;7364905;32;20126;-62
2022/05/24 04:17:54;;;;;;;11.15;5.37;;;12.60;99.90;;;;;;7355925;32;20103;-61
2022/05/24 04:21:55;;;;;;;9.65;5.10;;;12.60;99.90;;;;;;7358958;32;20493;-61
2022/05/24 04:25:57;;;;;;;8.27;5.37;;;12.60;99.90;;;;;;7366865;32;20099;-62
2022/05/24 04:29:59;;;;;;;10.43;5.30;;;12.70;99.90;;;;;;7362227;32;20103;-61
2022/05/24 04:34:01;;;;;;;16.30;5.05;;;12.70;99.90;;;;;;7347234;32;20186;-61
2022/05/24 04:38:03;;;;;;;12.02;5.40;;;12.70;99.90;;;;;;7349665;32;20121;-61
2022/05/24 04:42:21;;;;;;;12.93;4.80;;;12.80;99.90;;;;;;7369426;32;20091;-60
2022/05/24 04:46:23;;;;;;;9.77;4.15;;;12.80;99.90;;;;;;7354802;32;20292;-61
2022/05/24 04:50:25;;;;;;;8.75;4.37;;;12.90;99.90;;;;;;7348545;32;20174;-64
2022/05/24 04:54:33;;;;;;;13.18;4.53;;;12.90;99.90;;;;;;7370061;32;20194;-63
2022/05/24 04:58:35;;;;;;;9.82;4.20;;;12.80;99.90;;;;;;7361928;32;20186;-63
2022/05/24 05:02:37;;;;;;;10.90;4.75;;;12.70;99.90;;;;;;7365173;32;20589;-63
2022/05/24 05:06:46;;;;;;;10.50;3.70;;;12.70;99.90;;;;;;7365649;32;20129;-64
2022/05/24 05:10:48;;;;;;;13.88;4.32;;;12.70;99.90;;;;;;7351150;32;20122;-63
2022/05/24 05:14:49;;;;;;;11.85;4.00;;;12.70;99.90;;;;;;7361233;32;20126;-64
2022/05/24 05:18:52;;;;;;;11.85;3.33;;;12.80;99.90;;;;;;7362122;32;20659;-63
2022/05/24 05:22:54;;;;;;;10.35;2.80;;;12.70;99.90;;;;;;7361961;32;20127;-64
2022/05/24 05:26:55;;;;;;;10.23;3.22;;;12.70;99.90;;;;;;7366205;32;20126;-65
2022/05/24 05:35:18;;;;;;;13.20;3.42;;;12.60;99.90;;;;;;7360621;32;20103;-63
2022/05/24 05:39:20;;;;;;;11.38;2.80;;;12.60;99.90;;;;;;7354208;32;20107;-61
2022/05/24 05:43:21;;;;;;;12.13;2.70;;;12.50;99.90;;;;;;7358392;32;20099;-65
2022/05/24 05:47:23;;;;;;;10.00;2.65;;;12.40;99.90;;;;;;7362021;32;20119;-64
2022/05/24 05:51:25;;;;;;;9.20;2.47;;;12.30;99.90;;;;;;7367705;32;20102;-63
2022/05/24 05:55:27;;;;;;;10.90;2.42;;;12.30;99.90;;;;;;7356787;32;20216;-63
2022/05/24 05:59:28;;;;;;;8.38;2.40;;;12.20;99.90;;;;;;7373034;32;20107;-65
2022/05/24 06:03:30;;;;;;;6.35;1.98;;;12.20;99.90;;;;;;7359125;32;20214;-63
2022/05/24 06:07:32;;;;;;;5.72;2.67;;;12.10;99.90;;;;;;7352120;32;20330;-63
2022/05/24 06:11:34;;;;;;;9.77;2.45;;;12.00;99.90;;;;;;7362378;32;20217;-65
2022/05/24 06:15:37;;;;;;;8.95;2.50;;;11.90;99.90;;;;;;7371154;32;20117;-66
2022/05/24 06:19:39;;;;;;;6.43;2.08;;;11.80;99.90;;;;;;7342193;32;20103;-65
2022/05/24 06:23:41;;;;;;;8.00;2.10;;;11.80;99.90;;;;;;7341808;32;20153;-62
2022/05/24 06:27:43;;;;;;;10.13;2.60;;;11.80;99.90;;;;;;7354782;32;20762;-63
2022/05/24 06:31:45;;;;;;;8.13;2.47;;;11.80;99.90;;;;;;7351923;32;20138;-62
2022/05/24 06:35:47;;;;;;;9.02;2.42;;;11.80;99.90;;;;;;7364169;32;20547;-64
2022/05/24 06:39:49;;;;;;;9.40;2.22;;;11.70;99.90;;;;;;7379022;32;20444;-62
2022/05/24 06:43:50;;;;;;;5.70;2.42;;;11.70;99.90;;;;;;7367673;32;20095;-67
2022/05/24 06:47:52;;;;;;;7.25;2.28;;;11.70;99.90;;;;;;7378470;32;20792;-63
2022/05/24 06:51:54;;;;;;;6.18;1.95;;;11.80;99.90;;;;;;7376017;32;20134;-62
2022/05/24 06:55:55;;;;;;;9.80;2.50;;;11.80;99.90;;;;;;7355595;32;20508;-63
2022/05/24 07:04:17;;;;;;;4.95;1.92;;;11.80;99.90;;;;;;7364719;32;20194;-63
2022/05/24 07:08:19;;;;;;;9.75;2.10;;;11.80;99.90;;;;;;7367496;32;20103;-63
2022/05/24 07:12:21;;;;;;;10.02;2.50;;;11.90;99.90;;;;;;7379272;32;20098;-63
2022/05/24 07:16:23;;;;;;;8.55;2.67;;;12.10;99.90;;;;;;7364553;32;20130;-64
2022/05/24 07:20:26;;;;;;;7.25;2.53;;;12.20;99.90;;;;;;7363824;32;20164;-64
2022/05/24 07:24:28;;;;;;;6.62;2.00;;;12.40;99.90;;;;;;7362622;32;20105;-63
2022/05/24 07:28:30;;;;;;;9.90;2.10;;;12.40;99.90;;;;;;7350015;32;20814;-63
2022/05/24 07:32:32;;;;;;;5.50;1.77;;;12.50;99.90;;;;;;7362156;32;20202;-63
2022/05/24 07:36:33;;;;;;;3.78;1.73;;;12.60;99.90;;;;;;7376810;32;20099;-63
2022/05/24 07:49:18;;;;;;;6.70;1.87;;;13.10;99.90;;;;;;7363335;32;20096;-63
2022/05/24 07:53:20;;;;;;;8.38;2.12;;;13.20;99.90;;;;;;7350559;32;20397;-64
2022/05/24 07:57:21;;;;;;;7.62;2.00;;;13.40;99.90;;;;;;7342445;32;20095;-65
2022/05/24 08:01:25;;;;;;;5.40;2.22;;;13.40;99.90;;;;;;7373026;32;20110;-64
2022/05/24 08:05:30;;;;;;;8.25;2.80;;;13.40;99.90;;;;;;7357470;32;20261;-64
2022/05/24 08:09:32;;;;;;;7.90;2.42;;;13.40;99.90;;;;;;7376350;32;20123;-64
2022/05/24 08:13:35;;;;;;;6.90;2.20;;;13.50;99.90;;;;;;7342822;32;20711;-65
2022/05/24 08:17:37;;;;;;;7.37;2.22;;;14.00;99.90;;;;;;7360646;32;20122;-64
2022/05/24 08:21:39;;;;;;;5.85;2.15;;;14.40;99.90;;;;;;7338094;32;20134;-65
2022/05/24 08:25:40;;;;;;;5.30;2.10;;;14.60;99.90;;;;;;7330722;32;20111;-66
2022/05/24 08:29:44;;;;;;;9.38;2.30;;;14.60;99.90;;;;;;7371695;32;20107;-63
2022/05/24 08:33:47;;;;;;;10.43;2.17;;;14.70;99.90;;;;;;7367600;32;20125;-65
2022/05/24 08:37:49;;;;;;;4.03;1.67;;;15.00;99.90;;;;;;7376102;32;20099;-65
2022/05/24 08:42:20;;;;;;;9.90;1.80;;;15.50;99.90;;;;;;7360811;32;20125;-63
2022/05/24 08:51:06;;;;;;;6.57;1.85;;;14.70;99.90;;;;;;7366218;32;20220;-64
2022/05/24 08:55:10;;;;;;;6.03;2.15;;;14.40;99.90;;;;;;7354788;32;20145;-64
2022/05/24 08:59:27;;;;;;;6.87;1.52;;;14.30;99.90;;;;;;7349721;32;20096;-64
2022/05/24 09:03:29;;;;;;;5.10;1.48;;;14.40;99.90;;;;;;7372246;32;20107;-65
2022/05/24 09:07:39;;;;;;;6.12;1.83;;;14.50;99.90;;;;;;7375841;32;20490;-64
2022/05/24 09:11:47;;;;;;;2.95;1.35;;;14.40;99.90;;;;;;7358834;32;20107;-64
2022/05/24 09:16:05;;;;;;;7.18;1.27;;;14.40;99.90;;;;;;7374998;32;20099;-65
2022/05/24 09:20:28;;;;;;;4.65;0.90;;;14.30;99.90;;;;;;7360903;32;20929;-64
2022/05/24 09:24:46;;;;;;;2.92;0.90;;;14.30;99.90;;;;;;7357755;32;20129;-64
2022/05/24 09:28:55;;;;;;;3.65;0.90;;;14.20;99.90;;;;;;7367900;32;20110;-64
2022/05/24 09:33:20;;;;;;;4.20;0.93;;;14.10;99.90;;;;;;7360436;32;20147;-65
2022/05/24 09:37:21;;;;;;;7.65;1.25;;;14.00;99.90;;;;;;7361471;32;20107;-65
2022/05/24 09:41:23;;;;;;;4.32;1.00;;;14.20;99.90;;;;;;7373449;32;20106;-64
2022/05/24 09:45:34;;;;;;;4.22;0.88;;;14.30;99.90;;;;;;7351086;32;20130;-64
2022/05/24 09:49:36;;;;;;;2.60;1.08;;;14.70;99.90;;;;;;7371299;32;20099;-66
2022/05/24 09:53:51;;;;;;;2.55;0.98;;;15.40;99.90;;;;;;7371652;32;20194;-64
2022/05/24 09:57:53;;;;;;;5.68;1.05;;;16.00;99.90;;;;;;7359756;32;20221;-64
2022/05/24 10:01:56;;;;;;;2.70;0.88;;;16.30;99.90;;;;;;7350110;32;20127;-65
2022/05/24 10:06:19;;;;;;;4.87;0.90;;;16.10;99.90;;;;;;7361255;32;20704;-63
2022/05/24 10:10:28;;;;;;;8.82;1.35;;;15.60;99.90;;;;;;7374755;32;20670;-64
2022/05/24 10:14:43;;;;;;;4.15;1.00;;;15.40;99.90;;;;;;7360195;32;20122;-64
2022/05/24 10:19:19;;;;;;;4.43;0.80;;;16.10;99.90;;;;;;7360877;32;20564;-63
2022/05/24 10:23:42;;;;;;;3.33;1.20;;;16.70;99.90;;;;;;7362004;32;20099;-65
2022/05/24 10:27:53;;;;;;;4.65;0.90;;;17.30;99.90;;;;;;7349746;32;20126;-68
2022/05/24 10:32:02;;;;;;;1.77;0.80;;;18.50;99.90;;;;;;7371441;32;20095;-66
2022/05/24 10:41:05;;;;;;;3.33;1.10;;;19.20;99.90;;;;;;7353746;32;20117;-65
2022/05/24 10:45:21;;;;;;;3.60;0.90;;;18.90;99.90;;;;;;7368709;32;20205;-66
2022/05/24 10:49:30;;;;;;;3.90;1.00;;;18.60;99.90;;;;;;7352893;32;20107;-66
2022/05/24 10:53:50;;;;;;;2.97;1.00;;;18.50;99.90;;;;;;7349313;32;20187;-66
2022/05/24 10:57:54;;;;;;;3.78;1.08;;;18.00;99.90;;;;;;7359983;32;20117;-66
2022/05/24 11:02:00;;;;;;;3.50;0.80;;;17.50;99.90;;;;;;7379435;32;20122;-67
2022/05/24 11:06:15;;;;;;;4.53;0.90;;;17.10;99.90;;;;;;7369055;32;20152;-66
2022/05/24 11:10:28;;;;;;;3.37;0.80;;;16.60;99.90;;;;;;7358472;32;20225;-66
2022/05/24 11:14:42;;;;;;;3.62;0.90;;;16.50;99.90;;;;;;7372939;32;20131;-66
2022/05/24 11:18:44;;;;;;;4.78;1.40;;;16.80;99.90;;;;;;7371265;32;20107;-66
2022/05/24 11:22:56;;;;;;;3.47;0.90;;;17.20;99.90;;;;;;7371028;32;20103;-66
2022/05/24 11:27:00;;;;;;;2.70;0.73;;;17.30;99.90;;;;;;7343280;32;20206;-66
2022/05/24 11:31:40;;;;;;;3.90;0.95;;;17.40;99.90;;;;;;7362049;32;20141;-66
2022/05/24 11:35:45;;;;;;;2.33;0.70;;;17.30;99.90;;;;;;7345734;32;20107;-66
2022/05/24 11:39:47;;;;;;;3.90;0.80;;;17.50;99.90;;;;;;7358565;32;20202;-65
2022/05/24 11:43:49;;;;;;;2.72;0.93;;;17.70;99.90;;;;;;7365412;32;20102;-65
2022/05/24 11:47:55;;;;;;;3.22;0.85;;;18.10;99.90;;;;;;7365397;32;20198;-66
2022/05/24 11:51:59;;;;;;;4.50;0.90;;;18.10;99.90;;;;;;7368531;32;20205;-66
2022/05/24 11:56:01;;;;;;;2.12;0.55;;;18.50;99.90;;;;;;7349596;32;20126;-66
2022/05/24 12:00:04;;;;;;;2.42;0.50;;;19.30;99.90;;;;;;7364925;32;20519;-67
2022/05/24 12:08:29;;;;;;;3.75;0.77;;;19.30;99.90;;;;;;7358130;32;20158;-59
2022/05/24 12:12:35;;;;;;;1.70;0.43;;;19.30;99.90;;;;;;7359561;32;20099;-60
2022/05/24 12:17:05;;;;;;;2.67;0.70;;;19.20;99.90;;;;;;7371608;32;20125;-59
2022/05/24 12:21:08;;;;;;;3.33;0.52;;;18.80;99.90;;;;;;7356990;32;20154;-59
2022/05/24 12:25:09;;;;;;;3.80;0.80;;;18.20;99.90;;;;;;7339876;32;20119;-60
2022/05/24 12:29:13;;;;;;;3.12;0.68;;;18.20;99.90;;;;;;7364211;32;20095;-60
2022/05/24 12:33:18;;;;;;;3.85;0.70;;;18.10;99.90;;;;;;7356053;32;20609;-59
2022/05/24 12:37:30;;;;;;;2.42;0.60;;;18.00;99.90;;;;;;7355881;32;20099;-59
2022/05/24 12:41:49;;;;;;;3.92;0.90;;;17.80;99.90;;;;;;7367562;32;20145;-59
2022/05/24 12:46:00;;;;;;;1.73;0.50;;;17.60;99.90;;;;;;7348484;32;20211;-59
2022/05/24 12:50:03;;;;;;;1.23;0.37;;;17.30;99.90;;;;;;7366211;32;20594;-67
2022/05/24 12:54:17;;;;;;;1.37;0.40;;;17.30;99.90;;;;;;7363110;32;20586;-66
2022/05/24 12:58:32;;;;;;;1.85;0.40;;;17.20;99.90;;;;;;7363245;32;20103;-66
2022/05/24 13:02:48;;;;;;;2.20;0.50;;;17.00;99.90;;;;;;7358886;32;20134;-66
2022/05/24 13:06:49;;;;;;;3.08;0.52;;;17.00;99.90;;;;;;7361566;32;20122;-66
2022/05/24 13:10:52;;;;;;;1.48;0.70;;;16.90;99.90;;;;;;7357417;32;20126;-66
2022/05/24 13:14:58;;;;;;;3.65;0.80;;;17.20;99.90;;;;;;7359836;32;20208;-67
2022/05/24 13:19:03;;;;;;;3.20;0.95;;;17.80;99.90;;;;;;7346558;32;20114;-66
2022/05/24 13:23:46;;;;;;;2.33;0.50;;;18.10;99.90;;;;;;7340666;32;20124;-67
2022/05/24 13:27:54;;;;;;;3.25;1.00;;;18.60;99.90;;;;;;7345719;32;20194;-67
2022/05/24 13:36:26;;;;;;;2.92;0.80;;;18.40;99.90;;;;;;7375034;32;20240;-66
2022/05/24 13:40:38;;;;;;;1.52;0.70;;;18.10;99.90;;;;;;7375074;32;20597;-67
2022/05/24 13:44:42;;;;;;;1.60;0.60;;;17.60;99.90;;;;;;7373530;32;20121;-67
2022/05/24 13:48:53;;;;;;;0.65;0.40;;;16.80;99.90;;;;;;7357182;32;20717;-67
2022/05/24 13:53:02;;;;;;;5.90;0.73;;;16.40;99.90;;;;;;7373688;32;20448;-66
2022/05/24 13:57:05;;;;;;;8.77;0.57;;;15.90;99.90;;;;;;7375290;32;20099;-66
2022/05/24 14:01:32;;;;;;;3.72;0.60;;;15.90;99.90;;;;;;7360718;32;20099;-66
2022/05/24 14:05:36;;;;;;;0.93;0.40;;;16.00;99.90;;;;;;7351040;32;20146;-66
2022/05/24 14:09:38;;;;;;;0.75;0.40;;;16.50;99.90;;;;;;7364514;32;20117;-66
2022/05/24 14:13:41;;;;;;;1.75;0.45;;;16.60;99.90;;;;;;7365714;32;20095;-66
2022/05/24 14:17:43;;;;;;;2.05;0.62;;;16.60;99.90;;;;;;7369347;32;20124;-65
2022/05/24 14:21:45;;;;;;;3.10;0.73;;;16.70;99.90;;;;;;7366630;32;20111;-66
2022/05/24 14:25:47;;;;;;;2.00;0.70;;;16.80;99.90;;;;;;7364852;32;20118;-66
2022/05/24 14:29:49;;;;;;;4.30;0.80;;;16.80;99.90;;;;;;7366904;32;20122;-66
2022/05/24 14:33:52;;;;;;;2.28;0.50;;;17.10;99.90;;;;;;7368250;32;20116;-66
2022/05/24 14:37:55;;;;;;;1.10;0.50;;;17.60;99.90;;;;;;7354057;32;20688;-66
2022/05/24 14:41:57;;;;;;;1.33;0.30;;;18.00;99.90;;;;;;7360004;32;20104;-66
2022/05/24 14:46:00;;;;;;;3.15;0.40;;;18.20;99.90;;;;;;7364943;32;20216;-66
2022/05/24 14:50:02;;;;;;;1.92;0.45;;;18.00;99.90;;;;;;7369562;32;20210;-66
2022/05/24 14:54:04;;;;;;;6.28;1.00;;;17.70;99.90;;;;;;7361001;32;20714;-67
2022/05/24 14:58:09;;;;;;;1.55;0.60;;;17.40;99.90;;;;;;7359804;32;20321;-66
2022/05/24 15:02:11;;;;;;;2.10;0.40;;;17.10;99.90;;;;;;7354630;32;20115;-66
2022/05/24 15:06:13;;;;;;;0.82;0.28;;;16.80;99.90;;;;;;7376527;32;20145;-66
2022/05/24 15:18:56;;;;;;;1.20;0.60;;;15.80;99.90;;;;;;7366006;32;20199;-66
2022/05/24 15:23:00;;;;;;;2.53;0.52;;;15.40;99.90;;;;;;7347979;32;20137;-68
2022/05/24 15:27:06;;;;;;;2.12;0.60;;;15.00;99.90;;;;;;7348928;32;20131;-66
2022/05/24 15:31:08;;;;;;;2.30;0.60;;;14.70;99.90;;;;;;7351572;32;20781;-68
2022/05/24 15:35:10;;;;;;;0.70;0.50;;;14.60;99.90;;;;;;7367759;32;20091;-69
2022/05/24 15:39:12;;;;;;;1.15;0.40;;;14.50;99.90;;;;;;7351801;32;20107;-67
2022/05/24 15:43:14;;;;;;;2.05;0.60;;;14.60;99.90;;;;;;7358130;32;20100;-69
2022/05/24 15:47:17;;;;;;;1.60;0.30;;;14.60;99.90;;;;;;7358935;32;20252;-70
2022/05/24 15:51:19;;;;;;;2.03;0.60;;;14.90;99.90;;;;;;7367188;32;20601;-70
2022/05/24 15:55:21;;;;;;;1.00;0.40;;;15.30;99.90;;;;;;7360584;32;20546;-69
2022/05/24 15:59:22;;;;;;;1.10;0.52;;;15.50;99.90;;;;;;7358574;32;20170;-70
2022/05/24 16:03:24;;;;;;;1.05;0.70;;;15.60;99.90;;;;;;7364099;32;20126;-70
2022/05/24 16:11:50;;;;;;;1.58;0.65;;;15.60;99.90;;;;;;7366210;32;20491;-67
2022/05/24 16:15:54;;;;;;;1.62;0.60;;;15.60;99.90;;;;;;7355509;32;20103;-66
2022/05/24 16:19:56;;;;;;;1.40;0.43;;;15.60;99.90;;;;;;7367626;32;20481;-66
2022/05/24 16:23:58;;;;;;;2.15;0.80;;;15.70;99.90;;;;;;7348631;32;20190;-66
2022/05/24 16:28:01;;;;;;;2.40;0.90;;;15.70;99.90;;;;;;7359456;32;20747;-69
2022/05/24 16:32:10;;;;;;;3.25;0.98;;;15.80;99.90;;;;;;7369084;32;20317;-68
2022/05/24 16:36:14;;;;;;;1.95;0.80;;;16.00;99.90;;;;;;7366298;32;20129;-68
2022/05/24 16:40:16;;;;;;;1.67;0.90;;;15.90;99.90;;;;;;7361387;32;20107;-69
2022/05/24 16:44:17;;;;;;;3.55;0.70;;;15.90;99.90;;;;;;7361044;32;20119;-69
2022/05/24 16:48:19;;;;;;;4.43;0.82;;;16.10;99.90;;;;;;7372044;32;20157;-67
2022/05/24 16:52:21;;;;;;;2.05;0.75;;;16.30;99.90;;;;;;7358150;32;20129;-67
2022/05/24 17:00:43;;;;;;;3.97;0.90;;;16.30;99.90;;;;;;7364556;32;20099;-65
2022/05/24 17:04:45;;;;;;;4.55;0.90;;;16.50;99.90;;;;;;7359049;32;20227;-65
2022/05/24 17:08:48;;;;;;;5.10;1.20;;;16.60;99.90;;;;;;7339375;32;20228;-70
2022/05/24 17:12:50;;;;;;;4.60;0.88;;;16.40;99.90;;;;;;7367720;32;20115;-67
2022/05/24 17:16:51;;;;;;;2.25;0.70;;;16.20;99.90;;;;;;7350744;32;20099;-68
2022/05/24 17:20:53;;;;;;;2.47;1.08;;;15.90;99.90;;;;;;7367247;32;20103;-67
2022/05/24 17:24:55;;;;;;;2.05;0.55;;;15.90;99.90;;;;;;7353050;32;20104;-65
2022/05/24 17:28:58;;;;;;;0.95;0.47;;;15.70;99.90;;;;;;7355933;32;20122;-68
2022/05/24 17:33:16;;;;;;;0.75;0.40;;;15.60;99.90;;;;;;7353356;32;20106;-65
2022/05/24 17:37:18;;;;;;;1.60;0.40;;;15.40;99.90;;;;;;7360227;32;20150;-64
2022/05/24 17:41:21;;;;;;;0.93;0.40;;;15.30;99.90;;;;;;7352859;32;20111;-64
2022/05/24 17:45:24;;;;;;;1.10;0.32;;;15.40;99.90;;;;;;7355730;32;20122;-63
2022/05/24 17:49:26;;;;;;;0.98;0.30;;;15.50;99.90;;;;;;7361980;32;20103;-69
2022/05/24 17:53:28;;;;;;;1.87;0.30;;;15.60;99.90;;;;;;7357898;32;20122;-68
2022/05/24 17:57:30;;;;;;;1.70;0.30;;;15.60;99.90;;;;;;7358791;32;20136;-67
2022/05/24 18:01:33;;;;;;;0.57;0.40;;;15.70;99.90;;;;;;7359623;32;20112;-68
2022/05/24 18:05:37;;;;;;;0.98;0.28;;;15.70;99.90;;;;;;7339525;32;20472;-66
2022/05/24 18:09:38;;;;;;;0.95;0.40;;;15.70;99.90;;;;;;7363134;32;20150;-67
2022/05/24 18:13:40;;;;;;;1.08;0.35;;;15.50;99.90;;;;;;7362974;32;20103;-66
2022/05/24 18:17:48;;;;;;;3.17;0.40;;;15.30;99.90;;;;;;7354351;32;20103;-67
2022/05/24 18:21:53;;;;;;;1.30;0.60;;;15.30;99.90;;;;;;7345430;32;20122;-67
2022/05/24 18:34:46;;;;;;;2.20;0.50;;;15.00;99.90;;;;;;7349566;32;20268;-65
2022/05/24 18:38:49;;;;;;;1.75;0.40;;;14.90;99.90;;;;;;7333382;32;20515;-66
2022/05/24 18:42:50;;;;;;;3.95;0.80;;;14.90;99.90;;;;;;7342250;32;20142;-68
2022/05/24 18:46:54;;;;;;;1.75;0.62;;;14.90;99.90;;;;;;7358916;32;20131;-67
2022/05/24 18:50:56;;;;;;;1.23;0.45;;;14.80;99.90;;;;;;7350474;32;20824;-67
2022/05/24 18:54:58;;;;;;;2.35;0.50;;;14.90;99.90;;;;;;7363743;32;20514;-64
2022/05/24 18:59:19;;;;;;;1.98;0.80;;;14.90;99.90;;;;;;7367645;32;20385;-70
2022/05/24 19:03:21;;;;;;;2.67;0.50;;;14.90;99.90;;;;;;7351999;32;20106;-68
2022/05/24 19:07:23;;;;;;;2.30;0.90;;;14.90;99.90;;;;;;7371645;32;20117;-69
2022/05/24 19:11:25;;;;;;;2.58;0.60;;;14.80;99.90;;;;;;7364439;32;20109;-68
2022/05/24 19:15:27;;;;;;;2.15;0.75;;;14.80;99.90;;;;;;7363446;32;20149;-68
2022/05/24 19:19:29;;;;;;;1.10;0.50;;;14.70;99.90;;;;;;7360458;32;20193;-67
2022/05/24 19:23:32;;;;;;;1.23;0.50;;;14.80;99.90;;;;;;7368746;32;20498;-70
2022/05/24 19:27:34;;;;;;;2.90;0.50;;;14.70;99.90;;;;;;7362026;32;20102;-68
2022/05/24 19:31:36;;;;;;;2.25;0.70;;;14.60;99.90;;;;;;7366815;32;20103;-68
2022/05/24 19:35:38;;;;;;;2.08;0.70;;;14.50;99.90;;;;;;7348163;32;20126;-67
2022/05/24 19:44:00;;;;;;;2.65;0.80;;;14.20;99.90;;;;;;7365140;32;20129;-67
2022/05/24 19:48:02;;;;;;;1.12;0.70;;;14.00;99.90;;;;;;7352073;32;20126;-64
2022/05/24 19:52:05;;;;;;;2.47;0.70;;;14.00;99.90;;;;;;7363807;32;20529;-64
2022/05/24 19:56:07;;;;;;;1.87;0.60;;;13.80;99.90;;;;;;7365106;32;20104;-65
2022/05/24 20:00:12;;;;;;;2.67;0.80;;;13.70;99.90;;;;;;7352581;32;20126;-66
2022/05/24 20:04:14;;;;;;;1.40;0.70;;;13.60;99.90;;;;;;7358516;32;20099;-66
2022/05/24 20:08:15;;;;;;;2.65;0.70;;;13.50;99.90;;;;;;7360809;32;20103;-65
2022/05/24 20:12:17;;;;;;;3.05;0.77;;;13.40;99.90;;;;;;7352833;32;20147;-65
2022/05/24 20:16:20;;;;;;;2.67;0.85;;;13.40;99.90;;;;;;7351802;32;20213;-66
2022/05/24 20:20:24;;;;;;;1.65;0.70;;;13.40;99.90;;;;;;7364964;32;20484;-66
2022/05/24 20:24:27;;;;;;;2.75;1.30;;;13.30;99.90;;;;;;7363902;32;20102;-65
2022/05/24 20:28:29;;;;;;;1.62;0.77;;;13.30;99.90;;;;;;7360767;32;20095;-65
2022/05/24 20:32:31;;;;;;;1.73;0.70;;;13.20;99.90;;;;;;7366035;32;20174;-65
2022/05/24 20:36:32;;;;;;;2.45;0.70;;;13.30;99.90;;;;;;7365898;32;20136;-66
2022/05/24 20:40:35;;;;;;;1.23;0.77;;;13.10;99.90;;;;;;7354000;32;20117;-66
2022/05/24 20:44:37;;;;;;;4.05;1.02;;;13.10;99.90;;;;;;7361797;32;20143;-65
2022/05/24 20:48:40;;;;;;;2.47;0.57;;;13.10;99.90;;;;;;7345869;32;20229;-66
2022/05/24 20:52:41;;;;;;;1.90;0.80;;;13.00;99.90;;;;;;7364100;32;20251;-65
2022/05/24 20:56:43;;;;;;;4.62;1.10;;;13.00;99.90;;;;;;7360082;32;20118;-66
2022/05/24 21:00:45;;;;;;;4.72;1.10;;;13.00;99.90;;;;;;7365658;32;20421;-66
2022/05/24 21:04:51;;;;;;;2.65;1.02;;;12.80;99.90;;;;;;7359043;32;21705;-65
2022/05/24 21:08:54;;;;;;;3.87;0.90;;;12.70;99.90;;;;;;7344350;32;20125;-66
2022/05/24 21:12:58;;;;;;;3.15;1.00;;;12.80;99.90;;;;;;7365200;32;20165;-65
2022/05/24 21:16:59;;;;;;;1.80;0.70;;;12.70;99.90;;;;;;7354998;32;20218;-63
2022/05/24 21:21:01;;;;;;;3.28;0.88;;;12.60;99.90;;;;;;7365612;32;20225;-62
2022/05/24 21:29:26;;;;;;;3.47;0.47;;;12.60;99.90;;;;;;7361194;32;20150;-63
2022/05/24 21:33:30;;;;;;;2.97;0.75;;;12.50;99.90;;;;;;7348584;32;20573;-64
2022/05/24 21:37:32;;;;;;;1.35;0.50;;;12.50;99.90;;;;;;7362079;32;20107;-63
2022/05/24 21:41:34;;;;;;;2.85;0.65;;;12.40;99.90;;;;;;7361392;32;20106;-62
2022/05/24 21:45:37;;;;;;;2.62;0.60;;;12.40;99.90;;;;;;7365760;32;20147;-63
2022/05/24 21:49:38;;;;;;;4.68;0.80;;;12.30;99.90;;;;;;7371300;32;20471;-63
2022/05/24 21:53:40;;;;;;;2.28;0.60;;;12.30;99.90;;;;;;7359887;32;20173;-63
2022/05/24 21:57:42;;;;;;;2.45;0.60;;;12.20;99.90;;;;;;7360701;32;20096;-62
2022/05/24 22:01:44;;;;;;;1.62;0.57;;;12.10;99.90;;;;;;7365179;32;20106;-63
2022/05/24 22:05:47;;;;;;;2.47;0.62;;;12.10;99.90;;;;;;7352970;32;20262;-63
2022/05/24 22:09:48;;;;;;;3.08;0.70;;;12.00;99.90;;;;;;7366726;32;20634;-64
2022/05/24 22:13:51;;;;;;;3.45;0.90;;;11.90;99.90;;;;;;7368695;32;20138;-63
2022/05/24 22:17:53;;;;;;;4.05;0.70;;;11.80;99.90;;;;;;7366773;32;20513;-62
2022/05/24 22:21:55;;;;;;;6.00;1.08;;;11.70;99.90;;;;;;7357999;32;20524;-63
2022/05/24 22:25:56;;;;;;;4.37;1.05;;;11.50;99.90;;;;;;7374099;32;20503;-62
2022/05/24 22:29:58;;;;;;;4.22;0.62;;;11.40;99.90;;;;;;7372404;32;20116;-62
2022/05/24 22:34:00;;;;;;;3.30;0.90;;;11.30;99.90;;;;;;7364026;32;20755;-62
2022/05/24 22:38:02;;;;;;;3.58;0.77;;;11.10;99.90;;;;;;7349740;32;20102;-62